createdAt,value
2019-04-26T00:00:22.934Z,75.70
2019-04-26T00:04:24.918Z,76.40
2019-04-26T00:08:26.811Z,77.00
2019-04-26T00:13:24.790Z,77.40
2019-04-26T00:16:56.751Z,77.70
2019-04-26T00:20:58.991Z,79.10
2019-04-26T00:25:01.777Z,81.60
2019-04-26T00:29:03.783Z,81.20
2019-04-26T00:33:05.813Z,74.80
2019-04-26T00:37:07.839Z,73.30
2019-04-26T00:41:12.684Z,75.40
2019-04-26T00:45:15.064Z,76.80
2019-04-26T00:49:19.217Z,77.30
2019-04-26T00:53:24.378Z,78.30
2019-04-26T00:57:27.836Z,80.50
2019-04-26T01:01:31.691Z,80.60
2019-04-26T01:05:35.244Z,80.00
2019-04-26T01:09:37.155Z,80.70
2019-04-26T01:13:39.057Z,82.20
2019-04-26T01:17:40.973Z,81.00
2019-04-26T01:21:47.445Z,80.70
2019-04-26T01:26:05.702Z,81.20
2019-04-26T01:30:12.675Z,83.10
2019-04-26T01:34:14.705Z,83.70
2019-04-26T01:38:17.386Z,84.00
2019-04-26T01:42:30.017Z,84.00
2019-04-26T01:46:51.427Z,84.20
2019-04-26T01:51:11.737Z,85.20
2019-04-26T01:55:17.289Z,85.60
2019-04-26T01:59:22.187Z,85.00
2019-04-26T02:03:26.407Z,84.00
2019-04-26T02:07:41.428Z,83.70
2019-04-26T02:11:43.878Z,85.20
2019-04-26T02:15:45.856Z,86.70
2019-04-26T02:19:48.036Z,87.60
2019-04-26T02:24:08.291Z,86.50
2019-04-26T02:28:10.308Z,87.80
2019-04-26T02:32:12.581Z,89.00
2019-04-26T02:36:15.126Z,86.90
2019-04-26T02:40:19.712Z,88.10
2019-04-26T02:44:29.058Z,88.40
2019-04-26T02:48:52.053Z,89.10
2019-04-26T02:53:04.502Z,89.10
2019-04-26T02:57:06.676Z,89.70
2019-04-26T03:01:09.099Z,89.20
2019-04-26T03:05:11.866Z,89.60
2019-04-26T03:09:16.510Z,89.10
2019-04-26T03:13:23.279Z,90.00
2019-04-26T03:17:38.159Z,90.00
2019-04-26T03:21:57.343Z,89.90
2019-04-26T03:26:26.334Z,89.70
2019-04-26T03:31:00.340Z,89.20
2019-04-26T03:35:23.055Z,89.60
2019-04-26T03:39:47.844Z,90.70
2019-04-26T03:44:05.913Z,91.50
2019-04-26T03:48:46.026Z,91.70
2019-04-26T03:53:12.224Z,91.30
2019-04-26T03:57:50.074Z,90.70
2019-04-26T04:01:58.177Z,90.80
2019-04-26T04:06:04.633Z,90.90
2019-04-26T04:10:23.054Z,90.20
2019-04-26T04:15:00.116Z,90.00
2019-04-26T04:19:28.833Z,89.00
2019-04-26T04:23:48.725Z,88.10
2019-04-26T04:28:07.183Z,87.80
2019-04-26T04:32:36.429Z,87.50
2019-04-26T04:36:51.293Z,86.80
2019-04-26T04:41:10.480Z,87.20
2019-04-26T04:46:10.925Z,86.90
2019-04-26T04:50:17.518Z,87.20
2019-04-26T04:54:26.797Z,87.20
2019-04-26T04:58:52.443Z,87.30
2019-04-26T05:03:28.124Z,87.10
2019-04-26T05:08:13.950Z,87.50
2019-04-26T05:12:31.073Z,86.40
2019-04-26T05:17:28.040Z,86.60
2019-04-26T05:21:40.402Z,86.40
2019-04-26T05:26:16.497Z,86.20
2019-04-26T05:30:42.330Z,85.50
2019-04-26T05:35:02.055Z,84.90
2019-04-26T05:39:20.234Z,83.80
2019-04-26T05:43:46.245Z,83.80
2019-04-26T05:48:30.295Z,82.50
2019-04-26T05:53:10.246Z,82.90
2019-04-26T05:57:24.425Z,81.50
2019-04-26T06:02:01.057Z,80.80
2019-04-26T06:06:29.306Z,80.20
2019-04-26T06:10:43.204Z,79.90
2019-04-26T06:15:27.778Z,79.50
2019-04-26T06:20:23.630Z,80.30
2019-04-26T06:24:38.747Z,79.20
2019-04-26T06:29:01.055Z,78.90
2019-04-26T06:33:19.122Z,77.30
2019-04-26T06:37:36.148Z,76.90
2019-04-26T06:42:05.160Z,76.50
2019-04-26T06:46:43.046Z,76.50
2019-04-26T06:51:24.668Z,77.00
2019-04-26T06:55:25.057Z,75.90
2019-04-26T07:00:17.359Z,76.00
2019-04-26T07:04:43.524Z,75.40
2019-04-26T07:08:57.490Z,75.20
2019-04-26T07:13:32.927Z,74.60
2019-04-26T07:17:51.475Z,73.00
2019-04-26T07:22:19.828Z,72.60
2019-04-26T07:26:50.348Z,70.80
2019-04-26T07:31:06.239Z,71.00
2019-04-26T07:35:19.651Z,70.60
2019-04-26T07:39:39.736Z,70.30
2019-04-26T07:44:12.809Z,69.90
2019-04-26T07:48:41.549Z,69.70
2019-04-26T07:53:09.324Z,70.80
2019-04-26T07:58:03.572Z,70.50
2019-04-26T08:02:32.287Z,70.10
2019-04-26T08:06:56.071Z,69.80
2019-04-26T08:11:12.832Z,70.70
2019-04-26T08:15:21.327Z,69.90
2019-04-26T08:19:26.928Z,69.90
2019-04-26T08:23:41.929Z,69.60
2019-04-26T08:27:42.291Z,68.50
2019-04-26T08:31:48.817Z,68.50
2019-04-26T08:35:55.374Z,69.00
2019-04-26T08:39:59.472Z,70.00
2019-04-26T08:44:09.769Z,69.90
2019-04-26T08:48:23.350Z,69.10
2019-04-26T08:52:26.622Z,69.50
2019-04-26T08:56:47.704Z,69.00
2019-04-26T09:00:58.543Z,68.50
2019-04-26T09:05:25.261Z,68.20
2019-04-26T09:09:32.427Z,67.00
2019-04-26T09:13:38.993Z,67.40
2019-04-26T09:17:40.911Z,66.40
2019-04-26T09:21:47.399Z,66.20
2019-04-26T09:25:59.087Z,66.20
2019-04-26T09:29:54.982Z,65.00
2019-04-26T09:33:58.527Z,64.30
2019-04-26T09:38:00.446Z,64.20
2019-04-26T09:42:12.771Z,64.70
2019-04-26T09:46:17.021Z,64.90
2019-04-26T09:50:26.778Z,65.40
2019-04-26T09:54:28.861Z,65.40
2019-04-26T09:58:32.192Z,65.80
2019-04-26T10:02:35.405Z,66.70
2019-04-26T10:06:37.433Z,64.80
2019-04-26T10:10:39.425Z,64.80
2019-04-26T10:14:43.047Z,67.00
2019-04-26T10:18:50.517Z,68.20
2019-04-26T10:22:52.439Z,67.70
2019-04-26T10:26:55.515Z,68.10
2019-04-26T10:30:57.576Z,68.80
2019-04-26T10:34:59.651Z,69.30
2019-04-26T10:39:01.565Z,69.60
2019-04-26T10:43:06.392Z,70.70
2019-04-26T10:47:08.548Z,70.60
2019-04-26T10:51:11.232Z,71.50
2019-04-26T10:55:21.361Z,72.20
2019-04-26T10:59:25.290Z,72.40
2019-04-26T11:03:27.520Z,73.80
2019-04-26T11:07:30.385Z,74.90
2019-04-26T11:11:32.746Z,75.50
2019-04-26T11:15:34.844Z,76.40
2019-04-26T11:19:36.821Z,76.20
2019-04-26T11:23:41.074Z,75.50
2019-04-26T11:27:44.326Z,76.40
2019-04-26T11:31:46.099Z,76.90
2019-04-26T11:35:48.154Z,77.00
2019-04-26T11:39:50.088Z,78.00
2019-04-26T11:43:52.956Z,77.40
2019-04-26T11:47:56.601Z,77.10
2019-04-26T11:52:02.656Z,78.30
2019-04-26T11:56:04.598Z,78.20
2019-04-26T12:00:11.096Z,78.50
2019-04-26T12:04:20.149Z,79.30
2019-04-26T12:08:26.587Z,78.30
2019-04-26T12:12:28.596Z,77.80
2019-04-26T12:16:30.574Z,78.60
2019-04-26T12:20:32.779Z,79.00
2019-04-26T12:24:34.695Z,78.90
2019-04-26T12:28:40.040Z,78.70
2019-04-26T12:32:40.209Z,78.90
2019-04-26T12:36:42.142Z,78.50
2019-04-26T12:40:46.179Z,78.90
2019-04-26T12:45:05.499Z,79.60
2019-04-26T12:49:07.864Z,79.60
2019-04-26T12:53:09.797Z,80.30
2019-04-26T12:57:11.688Z,79.90
2019-04-26T13:01:14.367Z,79.60
2019-04-26T13:05:18.886Z,80.60
2019-04-26T13:09:26.190Z,81.20
2019-04-26T13:13:26.756Z,81.30
2019-04-26T13:17:31.347Z,80.80
2019-04-26T13:21:37.146Z,80.00
2019-04-26T13:25:40.428Z,80.10
2019-04-26T13:29:41.452Z,78.60
2019-04-26T13:33:43.390Z,78.20
2019-04-26T13:37:48.443Z,78.50
2019-04-26T13:42:02.119Z,79.50
2019-04-26T13:45:56.576Z,80.00
2019-04-26T13:50:12.237Z,80.00
2019-04-26T13:54:16.667Z,79.70
2019-04-26T13:58:20.952Z,79.30
2019-04-26T14:02:21.536Z,80.50
2019-04-26T14:06:23.554Z,80.10
2019-04-26T14:10:25.614Z,80.50
2019-04-26T14:14:30.289Z,81.70
2019-04-26T14:18:34.515Z,82.10
2019-04-26T14:22:37.068Z,82.30
2019-04-26T14:26:41.761Z,83.20
2019-04-26T14:30:43.786Z,84.50
2019-04-26T14:34:45.773Z,85.80
2019-04-26T14:39:05.731Z,87.30
2019-04-26T14:43:06.797Z,88.00
2019-04-26T14:47:13.844Z,89.80
2019-04-26T14:51:12.506Z,90.40
2019-04-26T14:55:16.534Z,90.80
2019-04-26T14:59:18.062Z,91.20
2019-04-26T15:03:24.478Z,91.40
2019-04-26T15:07:28.298Z,92.10
2019-04-26T15:11:32.292Z,92.40
2019-04-26T15:15:34.670Z,92.30
2019-04-26T15:19:40.314Z,92.70
2019-04-26T15:23:40.261Z,92.60
2019-04-26T15:27:44.121Z,93.00
2019-04-26T15:31:45.750Z,93.30
2019-04-26T15:35:48.706Z,93.30
2019-04-26T15:40:02.367Z,92.90
2019-04-26T15:44:07.732Z,93.60
2019-04-26T15:48:40.610Z,93.80
2019-04-26T15:52:43.891Z,93.60
2019-04-26T15:56:49.372Z,93.80
2019-04-26T16:00:49.555Z,94.10
2019-04-26T16:04:54.408Z,94.30
2019-04-26T16:08:55.080Z,93.80
2019-04-26T16:13:01.276Z,93.70
2019-04-26T16:17:03.166Z,93.70
2019-04-26T16:21:04.345Z,93.70
2019-04-26T16:25:07.958Z,93.80
2019-04-26T16:29:09.630Z,94.20
2019-04-26T16:33:13.489Z,94.50
2019-04-26T16:37:21.834Z,94.80
2019-04-26T16:41:21.762Z,95.00
2019-04-26T16:45:23.858Z,94.70
2019-04-26T16:49:25.771Z,94.80
2019-04-26T16:53:43.855Z,95.00
2019-04-26T16:57:31.418Z,95.30
2019-04-26T17:01:33.518Z,95.50
2019-04-26T17:05:46.848Z,95.80
2019-04-26T17:09:57.034Z,95.80
2019-04-26T17:13:51.223Z,95.60
2019-04-26T17:17:50.390Z,95.00
2019-04-26T17:21:56.495Z,95.60
2019-04-26T17:26:04.021Z,95.70
2019-04-26T17:46:43.479Z,96.10
2019-04-26T17:50:45.661Z,95.60
2019-04-26T18:03:01.879Z,96.50
2019-04-26T18:07:33.363Z,96.40
2019-04-26T18:11:07.762Z,96.20
2019-04-26T18:15:12.514Z,96.30
2019-04-26T18:19:15.501Z,96.20
2019-04-26T18:23:18.842Z,96.30
2019-04-26T18:31:29.112Z,95.80
2019-04-26T18:35:33.731Z,95.60
2019-04-26T18:39:36.633Z,95.60
2019-04-26T18:43:38.533Z,95.60
2019-04-26T18:47:45.047Z,95.60
2019-04-26T18:51:48.489Z,95.70
2019-04-26T18:55:50.921Z,95.60
2019-04-26T18:59:52.963Z,95.60
2019-04-26T19:03:54.983Z,95.80
2019-04-26T19:07:56.891Z,95.10
2019-04-26T19:11:58.875Z,95.80
2019-04-26T19:16:18.810Z,95.00
2019-04-26T19:20:28.298Z,95.20
2019-04-26T19:24:30.193Z,95.60
2019-04-26T19:28:32.106Z,96.20
2019-04-26T19:32:35.375Z,95.70
2019-04-26T19:36:37.688Z,95.60
2019-04-26T19:40:46.474Z,95.70
2019-04-26T19:44:43.188Z,95.20
2019-04-26T19:49:00.063Z,95.20
2019-04-26T19:53:14.244Z,95.60
2019-04-26T19:57:21.728Z,95.40
2019-04-26T20:01:25.069Z,95.70
2019-04-26T20:05:26.959Z,95.10
2019-04-26T20:09:29.143Z,95.20
2019-04-26T20:13:31.685Z,95.40
2019-04-26T20:17:33.778Z,95.50
2019-04-26T20:21:35.979Z,95.20
2019-04-26T20:25:37.882Z,95.50
2019-04-26T20:29:40.800Z,96.00
2019-04-26T20:33:43.383Z,95.90
2019-04-26T20:37:45.791Z,96.00
2019-04-26T20:42:00.313Z,95.70
2019-04-26T20:46:10.601Z,95.80
2019-04-26T20:50:01.126Z,95.90
2019-04-26T20:53:58.671Z,96.20
2019-04-26T20:58:07.057Z,96.20
2019-04-26T21:02:08.136Z,96.40
2019-04-26T21:06:07.877Z,95.90
2019-04-26T21:10:15.214Z,96.20
2019-04-26T21:14:13.918Z,96.40
2019-04-26T21:18:15.812Z,96.40
2019-04-26T21:22:25.470Z,96.30
2019-04-26T21:26:24.345Z,96.20
2019-04-26T21:30:38.657Z,96.20
2019-04-26T21:34:46.443Z,96.40
2019-04-26T21:38:48.218Z,96.30
2019-04-26T21:42:53.818Z,96.30
2019-04-26T21:46:58.660Z,96.40
2019-04-26T21:50:57.414Z,96.10
2019-04-26T21:54:59.311Z,96.40
2019-04-26T21:59:03.458Z,96.80
2019-04-26T22:03:07.800Z,96.80
2019-04-26T22:07:09.257Z,97.00
2019-04-26T22:11:13.982Z,97.00
2019-04-26T22:15:35.853Z,97.20
2019-04-26T22:19:36.213Z,97.20
2019-04-26T22:23:39.749Z,97.00
2019-04-26T22:27:43.630Z,97.30
2019-04-26T22:31:45.305Z,97.30
2019-04-26T22:35:50.578Z,97.30
2019-04-26T22:39:50.816Z,97.20
2019-04-26T22:43:57.029Z,97.10
2019-04-26T22:47:58.728Z,97.00
2019-04-26T22:52:00.611Z,97.20
2019-04-26T22:56:03.316Z,97.40
2019-04-26T23:00:07.551Z,97.30
2019-04-26T23:04:11.488Z,97.20
2019-04-26T23:08:13.732Z,97.20
2019-04-26T23:12:27.963Z,97.10
2019-04-26T23:17:08.478Z,97.00
2019-04-26T23:21:33.877Z,97.10
2019-04-26T23:25:37.032Z,96.90
2019-04-26T23:29:39.249Z,97.10
2019-04-26T23:33:42.834Z,97.00
2019-04-26T23:37:46.003Z,97.20
2019-04-26T23:41:49.091Z,97.10
2019-04-26T23:45:51.000Z,97.50
2019-04-26T23:49:53.850Z,96.90
2019-04-26T23:53:57.896Z,97.10
2019-04-26T23:58:00.497Z,97.00
